Terminal Aerodrome Forecast
Issued by NWS Louisville, KY

Home | Current Version | Previous Version | Text Only | Print | Product List | Glossary On
Versions: 1 2 3 4 5 6 7 8 9 10 11 12 13 14 15 16 17 18 19
000
FTUS43 KLMK 310800 AAA
TAFBWG
TAF AMD
KBWG 310835Z 3109/0106 19006KT 5SM -SHRA BR VCTS BKN009 BKN070CB
      TEMPO 3109/3113 2SM RA BR
     FM311400 19010KT 6SM -SHRA BR VCSH BKN012
     FM311800 22010KT P6SM VCSH SCT025 BKN035=

USA.gov is the U.S. government's official web portal to all federal, state and local government web resources and services.